Monday, August 20, 2018, 8:03 PM EDT
Back to Local

KNHK, Nas Patuxent River Md

Location: Patuxent River, MD, United States Lat: 38.3
Local Time: 8:03 PM EDT ( 0:03 GMT) Lon: -76.4
Time Zone: US/Eastern Elev: 39 ft

Show me the last for .
Show Decoded

2018-08-20 19:35 METAR KNHK 202335Z 09010KT 10SM BKN016 OVC039 26/22 A3006 RMK T02560217 =
2018-08-20 18:52 METAR KNHK 202252Z 09010KT 10SM FEW020 SCT040 SCT280 26/22 A3005 RMK SLP174
                 T02560222 =
2018-08-20 18:38 METAR KNHK 202238Z 10010KT 10SM FEW020 SCT040 SCT280 26/22 A3004 RMK T02560217 =
2018-08-20 17:52 METAR KNHK 202152Z 08009KT 10SM SCT017 BKN028 BKN280 26/22 A3005 RMK RAE2053
                 SLP176 T2 SET P0000 T02560222 =
2018-08-20 16:52 METAR KNHK 202052Z 08009KT 10SM -RA SCT015 OVC028 25/23 A3006 RMK RAB41 TSE48
                 SLP178 CB DSNT N AND SW T1 SET P0000 60000 T02500228 57005 =
2018-08-20 15:52 METAR KNHK 201952Z 08010KT 10SM TS SCT018CB BKN035 BKN280 26/23 A3006 RMK RAE21
                 TSB29 SLP180 OCNL LTGICCG SE-SW TS SE-SW MOV N T1 SET P0000 T02610228 =
2018-08-20 15:29 METAR KNHK 201929Z 06009KT 10SM TS SCT020CB BKN038 BKN280 26/23 A3006 RMK RAE21
                 TSB29 OCNL LTGICCG SE-S TS SE-S MOV N T1 SET P0000 T02610228 =
2018-08-20 14:52 METAR KNHK 201852Z 05009KT 10SM -RA BKN022 BKN045 BKN280 26/23 A3006 RMK
                 RAE13B42 SLP180 CB DSNT SE T1 SET P0000 T02560228 =
2018-08-20 13:52 METAR KNHK 201752Z 02008KT 10SM -RA BKN021 BKN045 BKN280 27/23 A3007 RMK
                 RAB06E31B52 SLP182 T2 SET P0000 60000 T02670233 10272 20233 56002 =
2018-08-20 12:52 METAR KNHK 201652Z 05007KT 10SM BKN020 OVC060 27/22 A3007 RMK SLP183 T2 SET
                 T02670222 =
2018-08-20 11:52 METAR KNHK 201552Z 06006KT 10SM BKN020 BKN080 BKN280 27/23 A3007 RMK SLP182 T2
                 SET T02720228 =
2018-08-20 10:52 METAR KNHK 201452Z 05007G15KT 10SM BKN015 BKN080 BKN280 26/22 A3007 RMK SLP184
                 T02560217 50008 =
2018-08-20 08:52 METAR KNHK 201252Z 07008KT 10SM BKN012 BKN080 BKN280 24/22 A3007 RMK SLP182
                 T02390217 =
2018-08-20 06:52 METAR KNHK 201052Z 05010KT 10SM BKN010 BKN120 BKN280 23/21 A3004 RMK SLP174
                 T02330211 =
2018-08-20 03:52 METAR KNHK 200752Z AUTO 04009KT 10SM OVC013 23/21 A3002 RMK AO2 SLP167 T02330211
                 =
2018-08-20 01:19 METAR KNHK 200519Z AUTO 07009KT 10SM BKN013 OVC031 23/21 A3002 RMK AO2 T02330211
                 =

Support USWX by starting your Amazon purchase here.